Menahga, MN (56464)

9:31 PM CST on February 05, 2016 (GMT -0600)
Pyburn Addition | | Change Station
CLOSE
Current Station
Personal Weather Station
Location: Menahga, MN
Elevation: 1444 ft
Nearby Weather Stations
Active Advisory: Winter Storm Watch

Elev 1444 ft 46.84 °N, 95.09 °W | Updated 1 minute ago

Overcast
Overcast
21.0 °F
Feels Like 21 °F
N
0.0
Wind Variable Wind from WSW
Gusts 0.0 mph

Today
High -- | Low -- °F
--% Chance of Precip.
Yesterday
High -- | Low -- °F
Precip. -- in
Pressure 30.09 in
Visibility 9.0 miles
Clouds Mostly Cloudy 900 ft
Windchill 21 °F
Dew Point 15 °F
Humidity 77%
Rainfall 0.00 in
Snow Depth Not available.
7:39 AM 5:28 PM
Waning Crescent, 8% visible
SPECI KPKD 060304Z AUTO 24004KT 9SM BKN009 M08/M10 A3009 RMK AO2 T10781100
Pressure 30.09 in
Visibility 9.0 miles
Clouds Mostly Cloudy 900 ft
Windchill 21 °F
Dew Point 15 °F
Humidity 77%
Rainfall 0.00 in
Snow Depth Not available.
7:39 AM 5:28 PM
Waning Crescent, 8% visible
SPECI KPKD 060304Z AUTO 24004KT 9SM BKN009 M08/M10 A3009 RMK AO2 T10781100

10-Day Weather Forecast

Almanac

Astronomy

Feb. 05, 2016 Rise Set
Actual Time
Civil Twilight
Nautical Twilight
Astronomical Twilight
Moon
Length of Visible Light
Length of Day
Tomorrow will be .
, % of the Moon is Illuminated

Today's Extremes

State Highs State Lows

Community

WunderPhotos

Upload Photos

1,890,919 photos uploaded!

WunderBlog® & News

Nearby

Air Quality

  Air Quality AQ Index Pollutant
Not available.

Snow Depth

Station Depth Elevation

Earthquake Activity

City Distance Mag. Time & Date
Minimum magnitude displayed is 2.5.

Coastal Water Temperatures

Place Temperature

Stations

Nearby Weather Stations

Station Location Temp. Windchill Dew Point Humidity Wind Precip. Elev Updated Type
                   

Watches & Warnings

Winter Storm Watch
Issued: 3:13 PM CST Feb. 5, 2016 – National Weather Service

... Winter Storm Watch in effect from Sunday morning through late
Sunday night...

The National Weather Service in Grand Forks has issued a Winter
Storm Watch... which is in effect from Sunday morning through late
Sunday night.

* Timing... snow is possible from Sunday morning through late
Sunday night.

* Snow accumulations... total snow accumulations 4 inches or more
is possible.

* Winds / visibilities... significant reductions in visibility are
possible in open areas from falling and blowing snow Sunday
afternoon and Sunday night.

* Impacts... plan on difficult driving conditions Sunday and Sunday
night.

Precautionary/preparedness actions...

A Winter Storm Watch means there is potential for significant
snow... sleet or ice accumulations that may impact travel.
Continue to monitor the latest forecasts.


Dk